sensor_id;sensor_type;location;lat;lon;timestamp;P1;durP1;ratioP1;P2;durP2;ratioP2
11539;SDS011;5826;54.756;9.192;2023-06-26T00:01:57;4.22;;;3.83;;
11539;SDS011;5826;54.756;9.192;2023-06-26T00:04:22;4.40;;;4.03;;
11539;SDS011;5826;54.756;9.192;2023-06-26T00:06:48;3.83;;;3.50;;
11539;SDS011;5826;54.756;9.192;2023-06-26T00:09:13;4.13;;;3.78;;
11539;SDS011;5826;54.756;9.192;2023-06-26T00:11:39;4.43;;;4.03;;
11539;SDS011;5826;54.756;9.192;2023-06-26T00:14:04;4.18;;;3.78;;
11539;SDS011;5826;54.756;9.192;2023-06-26T00:16:30;4.15;;;3.78;;
11539;SDS011;5826;54.756;9.192;2023-06-26T00:18:56;4.00;;;3.60;;
11539;SDS011;5826;54.756;9.192;2023-06-26T00:21:21;4.10;;;3.80;;
11539;SDS011;5826;54.756;9.192;2023-06-26T00:23:47;4.20;;;3.80;;
11539;SDS011;5826;54.756;9.192;2023-06-26T00:26:13;4.00;;;3.70;;
11539;SDS011;5826;54.756;9.192;2023-06-26T00:28:38;4.10;;;3.70;;
11539;SDS011;5826;54.756;9.192;2023-06-26T00:31:03;4.28;;;3.88;;
11539;SDS011;5826;54.756;9.192;2023-06-26T00:33:29;3.95;;;3.65;;
11539;SDS011;5826;54.756;9.192;2023-06-26T00:35:54;3.80;;;3.50;;
11539;SDS011;5826;54.756;9.192;2023-06-26T00:38:20;3.75;;;3.45;;
11539;SDS011;5826;54.756;9.192;2023-06-26T00:40:46;4.20;;;3.85;;
11539;SDS011;5826;54.756;9.192;2023-06-26T00:43:11;3.88;;;3.58;;
11539;SDS011;5826;54.756;9.192;2023-06-26T00:45:37;3.83;;;3.50;;
11539;SDS011;5826;54.756;9.192;2023-06-26T00:48:02;4.40;;;4.00;;
11539;SDS011;5826;54.756;9.192;2023-06-26T00:50:28;4.00;;;3.70;;
11539;SDS011;5826;54.756;9.192;2023-06-26T00:52:54;4.40;;;4.00;;
11539;SDS011;5826;54.756;9.192;2023-06-26T00:55:25;3.55;;;3.25;;
11539;SDS011;5826;54.756;9.192;2023-06-26T00:57:51;3.50;;;3.20;;
11539;SDS011;5826;54.756;9.192;2023-06-26T01:00:16;3.83;;;3.53;;
11539;SDS011;5826;54.756;9.192;2023-06-26T01:02:42;3.83;;;3.45;;
11539;SDS011;5826;54.756;9.192;2023-06-26T01:05:08;5.50;;;3.80;;
11539;SDS011;5826;54.756;9.192;2023-06-26T01:07:37;3.83;;;3.53;;
11539;SDS011;5826;54.756;9.192;2023-06-26T01:10:04;3.80;;;3.50;;
11539;SDS011;5826;54.756;9.192;2023-06-26T01:12:31;3.80;;;3.50;;
11539;SDS011;5826;54.756;9.192;2023-06-26T01:14:59;4.38;;;3.58;;
11539;SDS011;5826;54.756;9.192;2023-06-26T01:17:25;4.40;;;4.00;;
11539;SDS011;5826;54.756;9.192;2023-06-26T01:19:56;3.85;;;3.55;;
11539;SDS011;5826;54.756;9.192;2023-06-26T01:22:28;3.95;;;3.58;;
11539;SDS011;5826;54.756;9.192;2023-06-26T01:27:38;3.50;;;3.20;;
11539;SDS011;5826;54.756;9.192;2023-06-26T01:30:04;4.22;;;3.92;;
11539;SDS011;5826;54.756;9.192;2023-06-26T01:32:31;4.20;;;3.80;;
11539;SDS011;5826;54.756;9.192;2023-06-26T01:34:59;3.78;;;3.40;;
11539;SDS011;5826;54.756;9.192;2023-06-26T01:37:24;4.32;;;3.92;;
11539;SDS011;5826;54.756;9.192;2023-06-26T01:39:50;4.03;;;3.67;;
11539;SDS011;5826;54.756;9.192;2023-06-26T01:42:15;3.70;;;3.40;;
11539;SDS011;5826;54.756;9.192;2023-06-26T01:44:45;4.32;;;3.92;;
11539;SDS011;5826;54.756;9.192;2023-06-26T01:47:12;4.28;;;3.88;;
11539;SDS011;5826;54.756;9.192;2023-06-26T01:52:35;4.22;;;3.70;;
11539;SDS011;5826;54.756;9.192;2023-06-26T01:55:24;3.85;;;3.55;;
11539;SDS011;5826;54.756;9.192;2023-06-26T01:58:11;3.92;;;3.53;;
11539;SDS011;5826;54.756;9.192;2023-06-26T02:00:39;3.83;;;3.53;;
11539;SDS011;5826;54.756;9.192;2023-06-26T02:03:05;3.88;;;3.58;;
11539;SDS011;5826;54.756;9.192;2023-06-26T02:05:31;4.40;;;4.00;;
11539;SDS011;5826;54.756;9.192;2023-06-26T02:07:57;3.97;;;3.63;;
11539;SDS011;5826;54.756;9.192;2023-06-26T02:10:23;4.55;;;4.03;;
11539;SDS011;5826;54.756;9.192;2023-06-26T02:12:48;4.07;;;3.78;;
11539;SDS011;5826;54.756;9.192;2023-06-26T02:15:14;4.10;;;3.70;;
11539;SDS011;5826;54.756;9.192;2023-06-26T02:17:39;4.18;;;3.88;;
11539;SDS011;5826;54.756;9.192;2023-06-26T02:20:05;3.70;;;3.40;;
11539;SDS011;5826;54.756;9.192;2023-06-26T02:22:31;4.32;;;3.92;;
11539;SDS011;5826;54.756;9.192;2023-06-26T02:24:56;4.45;;;4.05;;
11539;SDS011;5826;54.756;9.192;2023-06-26T02:27:22;4.00;;;3.70;;
11539;SDS011;5826;54.756;9.192;2023-06-26T02:29:47;4.20;;;3.90;;
11539;SDS011;5826;54.756;9.192;2023-06-26T02:32:13;4.00;;;3.70;;
11539;SDS011;5826;54.756;9.192;2023-06-26T02:34:38;3.88;;;3.58;;
11539;SDS011;5826;54.756;9.192;2023-06-26T02:37:04;3.90;;;3.60;;
11539;SDS011;5826;54.756;9.192;2023-06-26T02:39:31;4.65;;;4.22;;
11539;SDS011;5826;54.756;9.192;2023-06-26T02:41:57;4.78;;;4.38;;
11539;SDS011;5826;54.756;9.192;2023-06-26T02:44:22;4.60;;;4.20;;
11539;SDS011;5826;54.756;9.192;2023-06-26T02:46:48;3.72;;;3.42;;
11539;SDS011;5826;54.756;9.192;2023-06-26T02:49:13;4.40;;;4.00;;
11539;SDS011;5826;54.756;9.192;2023-06-26T02:51:39;4.20;;;3.80;;
11539;SDS011;5826;54.756;9.192;2023-06-26T02:54:04;4.00;;;3.70;;
11539;SDS011;5826;54.756;9.192;2023-06-26T02:56:30;4.20;;;3.90;;
11539;SDS011;5826;54.756;9.192;2023-06-26T02:58:56;4.50;;;4.10;;
11539;SDS011;5826;54.756;9.192;2023-06-26T03:01:22;4.50;;;4.10;;
11539;SDS011;5826;54.756;9.192;2023-06-26T03:03:47;4.50;;;4.10;;
11539;SDS011;5826;54.756;9.192;2023-06-26T03:06:13;4.32;;;3.92;;
11539;SDS011;5826;54.756;9.192;2023-06-26T03:08:39;4.15;;;3.85;;
11539;SDS011;5826;54.756;9.192;2023-06-26T03:11:05;5.07;;;4.50;;
11539;SDS011;5826;54.756;9.192;2023-06-26T03:13:32;4.03;;;3.72;;
11539;SDS011;5826;54.756;9.192;2023-06-26T03:15:58;4.63;;;4.20;;
11539;SDS011;5826;54.756;9.192;2023-06-26T03:18:24;4.43;;;4.03;;
11539;SDS011;5826;54.756;9.192;2023-06-26T03:20:49;4.57;;;4.18;;
11539;SDS011;5826;54.756;9.192;2023-06-26T03:23:15;4.45;;;4.05;;
11539;SDS011;5826;54.756;9.192;2023-06-26T03:25:40;4.57;;;4.18;;
11539;SDS011;5826;54.756;9.192;2023-06-26T03:28:06;4.97;;;4.50;;
11539;SDS011;5826;54.756;9.192;2023-06-26T03:30:31;4.88;;;4.47;;
11539;SDS011;5826;54.756;9.192;2023-06-26T03:32:57;4.65;;;4.25;;
11539;SDS011;5826;54.756;9.192;2023-06-26T03:35:22;4.60;;;4.20;;
11539;SDS011;5826;54.756;9.192;2023-06-26T03:37:48;4.82;;;4.43;;
11539;SDS011;5826;54.756;9.192;2023-06-26T03:40:14;4.32;;;3.92;;
11539;SDS011;5826;54.756;9.192;2023-06-26T03:42:39;4.93;;;4.53;;
11539;SDS011;5826;54.756;9.192;2023-06-26T03:45:05;4.80;;;4.40;;
11539;SDS011;5826;54.756;9.192;2023-06-26T03:47:31;4.72;;;4.32;;
11539;SDS011;5826;54.756;9.192;2023-06-26T03:49:56;4.55;;;4.00;;
11539;SDS011;5826;54.756;9.192;2023-06-26T03:52:22;4.40;;;4.00;;
11539;SDS011;5826;54.756;9.192;2023-06-26T03:54:47;4.70;;;4.30;;
11539;SDS011;5826;54.756;9.192;2023-06-26T03:57:13;4.70;;;4.30;;
11539;SDS011;5826;54.756;9.192;2023-06-26T03:59:39;4.75;;;4.35;;
11539;SDS011;5826;54.756;9.192;2023-06-26T04:02:04;4.53;;;4.13;;
11539;SDS011;5826;54.756;9.192;2023-06-26T04:04:30;4.32;;;3.92;;
11539;SDS011;5826;54.756;9.192;2023-06-26T04:06:56;4.70;;;4.30;;
11539;SDS011;5826;54.756;9.192;2023-06-26T04:09:22;4.50;;;4.10;;
11539;SDS011;5826;54.756;9.192;2023-06-26T04:11:47;4.55;;;4.15;;
11539;SDS011;5826;54.756;9.192;2023-06-26T04:14:13;4.38;;;4.07;;
11539;SDS011;5826;54.756;9.192;2023-06-26T04:16:38;4.80;;;4.40;;
11539;SDS011;5826;54.756;9.192;2023-06-26T04:19:04;5.15;;;4.65;;
11539;SDS011;5826;54.756;9.192;2023-06-26T04:21:30;4.55;;;4.15;;
11539;SDS011;5826;54.756;9.192;2023-06-26T04:23:55;4.88;;;4.32;;
11539;SDS011;5826;54.756;9.192;2023-06-26T04:26:21;4.90;;;4.50;;
11539;SDS011;5826;54.756;9.192;2023-06-26T04:28:47;4.15;;;3.85;;
11539;SDS011;5826;54.756;9.192;2023-06-26T04:31:13;4.43;;;4.03;;
11539;SDS011;5826;54.756;9.192;2023-06-26T04:33:38;5.05;;;4.50;;
11539;SDS011;5826;54.756;9.192;2023-06-26T04:36:04;4.30;;;4.00;;
11539;SDS011;5826;54.756;9.192;2023-06-26T04:38:33;4.85;;;4.45;;
11539;SDS011;5826;54.756;9.192;2023-06-26T04:40:59;5.10;;;4.70;;
11539;SDS011;5826;54.756;9.192;2023-06-26T04:43:25;4.65;;;4.25;;
11539;SDS011;5826;54.756;9.192;2023-06-26T04:45:51;4.78;;;4.38;;
11539;SDS011;5826;54.756;9.192;2023-06-26T04:48:16;4.35;;;4.05;;
11539;SDS011;5826;54.756;9.192;2023-06-26T04:50:42;5.03;;;4.63;;
11539;SDS011;5826;54.756;9.192;2023-06-26T04:53:08;4.95;;;4.55;;
11539;SDS011;5826;54.756;9.192;2023-06-26T04:55:33;4.82;;;4.38;;
11539;SDS011;5826;54.756;9.192;2023-06-26T04:57:59;4.88;;;4.47;;
11539;SDS011;5826;54.756;9.192;2023-06-26T05:00:25;4.80;;;4.30;;
11539;SDS011;5826;54.756;9.192;2023-06-26T05:02:51;4.50;;;4.10;;
11539;SDS011;5826;54.756;9.192;2023-06-26T05:05:25;4.63;;;4.22;;
11539;SDS011;5826;54.756;9.192;2023-06-26T05:07:54;4.63;;;4.30;;
11539;SDS011;5826;54.756;9.192;2023-06-26T05:10:20;4.82;;;4.43;;
11539;SDS011;5826;54.756;9.192;2023-06-26T05:12:46;4.55;;;4.18;;
11539;SDS011;5826;54.756;9.192;2023-06-26T05:15:11;4.75;;;4.35;;
11539;SDS011;5826;54.756;9.192;2023-06-26T05:17:37;4.50;;;4.20;;
11539;SDS011;5826;54.756;9.192;2023-06-26T05:20:02;4.95;;;4.45;;
11539;SDS011;5826;54.756;9.192;2023-06-26T05:22:33;5.05;;;4.65;;
11539;SDS011;5826;54.756;9.192;2023-06-26T05:25:00;4.68;;;4.28;;
11539;SDS011;5826;54.756;9.192;2023-06-26T05:27:27;4.65;;;4.25;;
11539;SDS011;5826;54.756;9.192;2023-06-26T05:29:53;4.93;;;4.53;;
11539;SDS011;5826;54.756;9.192;2023-06-26T05:32:19;4.30;;;4.00;;
11539;SDS011;5826;54.756;9.192;2023-06-26T05:34:47;4.40;;;4.10;;
11539;SDS011;5826;54.756;9.192;2023-06-26T05:37:18;4.28;;;3.97;;
11539;SDS011;5826;54.756;9.192;2023-06-26T05:39:46;4.10;;;3.80;;
11539;SDS011;5826;54.756;9.192;2023-06-26T05:42:12;3.95;;;3.65;;
11539;SDS011;5826;54.756;9.192;2023-06-26T05:44:38;4.78;;;4.38;;
11539;SDS011;5826;54.756;9.192;2023-06-26T05:47:03;4.68;;;4.25;;
11539;SDS011;5826;54.756;9.192;2023-06-26T05:49:29;4.25;;;3.95;;
11539;SDS011;5826;54.756;9.192;2023-06-26T05:51:54;5.03;;;4.63;;
11539;SDS011;5826;54.756;9.192;2023-06-26T05:54:20;4.50;;;4.10;;
11539;SDS011;5826;54.756;9.192;2023-06-26T05:56:47;4.60;;;4.20;;
11539;SDS011;5826;54.756;9.192;2023-06-26T05:59:13;4.47;;;4.10;;
11539;SDS011;5826;54.756;9.192;2023-06-26T06:01:40;4.68;;;4.28;;
11539;SDS011;5826;54.756;9.192;2023-06-26T06:04:05;4.53;;;4.22;;
11539;SDS011;5826;54.756;9.192;2023-06-26T06:06:31;5.00;;;4.60;;
11539;SDS011;5826;54.756;9.192;2023-06-26T06:08:56;4.72;;;4.32;;
11539;SDS011;5826;54.756;9.192;2023-06-26T06:11:22;5.10;;;4.65;;
11539;SDS011;5826;54.756;9.192;2023-06-26T06:13:47;5.05;;;4.65;;
11539;SDS011;5826;54.756;9.192;2023-06-26T06:16:13;4.90;;;4.50;;
11539;SDS011;5826;54.756;9.192;2023-06-26T06:18:38;4.22;;;3.92;;
11539;SDS011;5826;54.756;9.192;2023-06-26T06:21:04;4.47;;;4.10;;
11539;SDS011;5826;54.756;9.192;2023-06-26T06:23:29;5.03;;;4.63;;
11539;SDS011;5826;54.756;9.192;2023-06-26T06:25:55;4.50;;;4.15;;
11539;SDS011;5826;54.756;9.192;2023-06-26T06:28:20;4.75;;;4.35;;
11539;SDS011;5826;54.756;9.192;2023-06-26T06:30:46;4.93;;;4.53;;
11539;SDS011;5826;54.756;9.192;2023-06-26T06:33:12;4.93;;;4.45;;
11539;SDS011;5826;54.756;9.192;2023-06-26T06:35:38;5.40;;;5.00;;
11539;SDS011;5826;54.756;9.192;2023-06-26T06:38:04;4.70;;;4.30;;
11539;SDS011;5826;54.756;9.192;2023-06-26T06:40:29;5.30;;;4.90;;
11539;SDS011;5826;54.756;9.192;2023-06-26T06:42:55;5.65;;;5.15;;
11539;SDS011;5826;54.756;9.192;2023-06-26T06:45:20;5.47;;;5.07;;
11539;SDS011;5826;54.756;9.192;2023-06-26T06:47:46;5.38;;;4.97;;
11539;SDS011;5826;54.756;9.192;2023-06-26T06:50:11;5.55;;;5.15;;
11539;SDS011;5826;54.756;9.192;2023-06-26T06:52:37;4.40;;;4.10;;
11539;SDS011;5826;54.756;9.192;2023-06-26T06:55:05;6.32;;;5.72;;
11539;SDS011;5826;54.756;9.192;2023-06-26T06:57:33;5.10;;;4.70;;
11539;SDS011;5826;54.756;9.192;2023-06-26T07:00:03;5.40;;;4.90;;
11539;SDS011;5826;54.756;9.192;2023-06-26T07:02:33;5.57;;;5.18;;
11539;SDS011;5826;54.756;9.192;2023-06-26T07:04:59;5.10;;;4.70;;
11539;SDS011;5826;54.756;9.192;2023-06-26T07:07:28;5.00;;;4.60;;
11539;SDS011;5826;54.756;9.192;2023-06-26T07:09:55;5.43;;;5.03;;
11539;SDS011;5826;54.756;9.192;2023-06-26T07:12:21;5.57;;;5.15;;
11539;SDS011;5826;54.756;9.192;2023-06-26T07:14:47;5.57;;;5.15;;
11539;SDS011;5826;54.756;9.192;2023-06-26T07:17:12;5.30;;;4.90;;
11539;SDS011;5826;54.756;9.192;2023-06-26T07:19:38;5.30;;;4.82;;
11539;SDS011;5826;54.756;9.192;2023-06-26T07:22:03;5.20;;;4.80;;
11539;SDS011;5826;54.756;9.192;2023-06-26T07:24:29;6.20;;;5.70;;
11539;SDS011;5826;54.756;9.192;2023-06-26T07:26:54;5.85;;;5.35;;
11539;SDS011;5826;54.756;9.192;2023-06-26T07:29:20;7.10;;;6.50;;
11539;SDS011;5826;54.756;9.192;2023-06-26T07:31:45;6.53;;;5.90;;
11539;SDS011;5826;54.756;9.192;2023-06-26T07:34:12;6.20;;;5.70;;
11539;SDS011;5826;54.756;9.192;2023-06-26T07:36:38;5.43;;;5.03;;
11539;SDS011;5826;54.756;9.192;2023-06-26T07:39:04;5.25;;;4.85;;
11539;SDS011;5826;54.756;9.192;2023-06-26T07:41:29;6.63;;;6.03;;
11539;SDS011;5826;54.756;9.192;2023-06-26T07:43:56;5.95;;;5.45;;
11539;SDS011;5826;54.756;9.192;2023-06-26T07:46:23;7.60;;;6.90;;
11539;SDS011;5826;54.756;9.192;2023-06-26T07:48:48;7.03;;;6.43;;
11539;SDS011;5826;54.756;9.192;2023-06-26T07:51:14;6.78;;;6.22;;
11539;SDS011;5826;54.756;9.192;2023-06-26T07:53:39;6.60;;;5.78;;
11539;SDS011;5826;54.756;9.192;2023-06-26T07:56:05;7.18;;;6.47;;
11539;SDS011;5826;54.756;9.192;2023-06-26T07:58:31;6.97;;;6.38;;
11539;SDS011;5826;54.756;9.192;2023-06-26T08:00:56;8.07;;;7.15;;
11539;SDS011;5826;54.756;9.192;2023-06-26T08:03:22;8.05;;;7.15;;
11539;SDS011;5826;54.756;9.192;2023-06-26T08:05:49;9.70;;;8.35;;
11539;SDS011;5826;54.756;9.192;2023-06-26T08:08:14;10.88;;;9.32;;
11539;SDS011;5826;54.756;9.192;2023-06-26T08:10:40;10.18;;;8.15;;
11539;SDS011;5826;54.756;9.192;2023-06-26T08:13:05;11.15;;;10.15;;
11539;SDS011;5826;54.756;9.192;2023-06-26T08:15:31;10.43;;;9.48;;
11539;SDS011;5826;54.756;9.192;2023-06-26T08:17:56;9.88;;;8.93;;
11539;SDS011;5826;54.756;9.192;2023-06-26T08:20:22;11.45;;;10.40;;
11539;SDS011;5826;54.756;9.192;2023-06-26T08:22:48;12.45;;;11.10;;
11539;SDS011;5826;54.756;9.192;2023-06-26T08:25:16;14.25;;;12.85;;
11539;SDS011;5826;54.756;9.192;2023-06-26T08:27:42;11.18;;;10.07;;
11539;SDS011;5826;54.756;9.192;2023-06-26T08:30:07;13.73;;;12.38;;
11539;SDS011;5826;54.756;9.192;2023-06-26T08:32:33;11.90;;;10.68;;
11539;SDS011;5826;54.756;9.192;2023-06-26T08:34:59;11.52;;;10.43;;
11539;SDS011;5826;54.756;9.192;2023-06-26T08:37:24;11.73;;;10.52;;
11539;SDS011;5826;54.756;9.192;2023-06-26T08:39:50;11.13;;;10.05;;
11539;SDS011;5826;54.756;9.192;2023-06-26T08:42:15;10.55;;;9.55;;
11539;SDS011;5826;54.756;9.192;2023-06-26T08:44:41;10.63;;;9.55;;
11539;SDS011;5826;54.756;9.192;2023-06-26T08:47:07;11.85;;;10.30;;
11539;SDS011;5826;54.756;9.192;2023-06-26T08:49:46;10.38;;;9.38;;
11539;SDS011;5826;54.756;9.192;2023-06-26T08:52:24;8.45;;;7.65;;
11539;SDS011;5826;54.756;9.192;2023-06-26T08:55:02;8.88;;;8.07;;
11539;SDS011;5826;54.756;9.192;2023-06-26T08:57:33;10.00;;;8.60;;
11539;SDS011;5826;54.756;9.192;2023-06-26T09:00:00;9.10;;;7.53;;
11539;SDS011;5826;54.756;9.192;2023-06-26T09:02:25;10.70;;;7.80;;
11539;SDS011;5826;54.756;9.192;2023-06-26T09:04:51;7.18;;;6.50;;
11539;SDS011;5826;54.756;9.192;2023-06-26T09:07:17;7.53;;;6.82;;
11539;SDS011;5826;54.756;9.192;2023-06-26T09:09:42;7.15;;;6.45;;
11539;SDS011;5826;54.756;9.192;2023-06-26T09:12:08;8.20;;;6.35;;
11539;SDS011;5826;54.756;9.192;2023-06-26T09:14:35;7.03;;;6.25;;
11539;SDS011;5826;54.756;9.192;2023-06-26T09:17:02;5.85;;;5.25;;
11539;SDS011;5826;54.756;9.192;2023-06-26T09:19:28;5.90;;;5.35;;
11539;SDS011;5826;54.756;9.192;2023-06-26T09:21:53;6.15;;;5.50;;
11539;SDS011;5826;54.756;9.192;2023-06-26T09:24:19;7.30;;;5.60;;
11539;SDS011;5826;54.756;9.192;2023-06-26T09:26:46;6.97;;;5.07;;
11539;SDS011;5826;54.756;9.192;2023-06-26T09:29:13;6.03;;;4.68;;
11539;SDS011;5826;54.756;9.192;2023-06-26T09:31:39;7.22;;;4.60;;
11539;SDS011;5826;54.756;9.192;2023-06-26T09:34:05;5.13;;;4.30;;
11539;SDS011;5826;54.756;9.192;2023-06-26T09:36:31;5.57;;;4.45;;
11539;SDS011;5826;54.756;9.192;2023-06-26T09:39:04;4.57;;;4.10;;
11539;SDS011;5826;54.756;9.192;2023-06-26T09:41:35;5.30;;;4.50;;
11539;SDS011;5826;54.756;9.192;2023-06-26T09:44:04;5.05;;;4.43;;
11539;SDS011;5826;54.756;9.192;2023-06-26T09:46:30;6.00;;;4.72;;
11539;SDS011;5826;54.756;9.192;2023-06-26T09:51:36;5.60;;;4.13;;
11539;SDS011;5826;54.756;9.192;2023-06-26T09:54:02;5.45;;;4.35;;
11539;SDS011;5826;54.756;9.192;2023-06-26T09:56:29;5.22;;;4.25;;
11539;SDS011;5826;54.756;9.192;2023-06-26T09:58:55;4.60;;;3.80;;
11539;SDS011;5826;54.756;9.192;2023-06-26T10:01:25;4.40;;;4.00;;
11539;SDS011;5826;54.756;9.192;2023-06-26T10:03:51;5.80;;;5.00;;
11539;SDS011;5826;54.756;9.192;2023-06-26T10:06:21;6.38;;;4.60;;
11539;SDS011;5826;54.756;9.192;2023-06-26T10:08:53;6.03;;;4.13;;
11539;SDS011;5826;54.756;9.192;2023-06-26T10:11:21;5.65;;;4.13;;
11539;SDS011;5826;54.756;9.192;2023-06-26T10:13:49;5.20;;;4.30;;
11539;SDS011;5826;54.756;9.192;2023-06-26T10:16:18;4.75;;;4.32;;
11539;SDS011;5826;54.756;9.192;2023-06-26T10:18:48;5.20;;;4.40;;
11539;SDS011;5826;54.756;9.192;2023-06-26T10:21:17;6.53;;;5.28;;
11539;SDS011;5826;54.756;9.192;2023-06-26T10:23:46;5.97;;;4.90;;
11539;SDS011;5826;54.756;9.192;2023-06-26T10:26:12;6.10;;;4.30;;
11539;SDS011;5826;54.756;9.192;2023-06-26T10:28:40;4.85;;;4.30;;
11539;SDS011;5826;54.756;9.192;2023-06-26T10:31:07;5.05;;;4.38;;
11539;SDS011;5826;54.756;9.192;2023-06-26T10:33:34;6.30;;;4.57;;
11539;SDS011;5826;54.756;9.192;2023-06-26T10:36:13;5.85;;;4.15;;
11539;SDS011;5826;54.756;9.192;2023-06-26T10:39:05;6.30;;;4.88;;
11539;SDS011;5826;54.756;9.192;2023-06-26T10:41:35;5.43;;;4.30;;
11539;SDS011;5826;54.756;9.192;2023-06-26T10:46:55;7.35;;;4.13;;
11539;SDS011;5826;54.756;9.192;2023-06-26T10:49:27;6.47;;;3.88;;
11539;SDS011;5826;54.756;9.192;2023-06-26T10:51:53;5.85;;;3.50;;
11539;SDS011;5826;54.756;9.192;2023-06-26T10:54:21;5.05;;;3.50;;
11539;SDS011;5826;54.756;9.192;2023-06-26T10:56:48;6.63;;;3.13;;
11539;SDS011;5826;54.756;9.192;2023-06-26T10:59:18;6.72;;;2.70;;
11539;SDS011;5826;54.756;9.192;2023-06-26T11:01:55;4.07;;;2.50;;
11539;SDS011;5826;54.756;9.192;2023-06-26T11:04:38;5.13;;;2.50;;
11539;SDS011;5826;54.756;9.192;2023-06-26T11:07:24;5.75;;;2.20;;
11539;SDS011;5826;54.756;9.192;2023-06-26T11:09:54;4.13;;;1.83;;
11539;SDS011;5826;54.756;9.192;2023-06-26T11:12:38;4.05;;;1.65;;
11539;SDS011;5826;54.756;9.192;2023-06-26T11:15:13;4.75;;;1.80;;
11539;SDS011;5826;54.756;9.192;2023-06-26T11:17:40;3.78;;;1.83;;
11539;SDS011;5826;54.756;9.192;2023-06-26T11:20:08;5.10;;;2.10;;
11539;SDS011;5826;54.756;9.192;2023-06-26T11:22:38;4.10;;;1.60;;
11539;SDS011;5826;54.756;9.192;2023-06-26T11:25:05;4.25;;;1.88;;
11539;SDS011;5826;54.756;9.192;2023-06-26T11:27:39;3.60;;;1.95;;
11539;SDS011;5826;54.756;9.192;2023-06-26T11:30:06;4.65;;;2.20;;
11539;SDS011;5826;54.756;9.192;2023-06-26T11:32:32;5.95;;;2.28;;
11539;SDS011;5826;54.756;9.192;2023-06-26T11:35:01;3.20;;;1.92;;
11539;SDS011;5826;54.756;9.192;2023-06-26T11:37:27;3.72;;;1.98;;
11539;SDS011;5826;54.756;9.192;2023-06-26T11:39:53;5.78;;;2.10;;
11539;SDS011;5826;54.756;9.192;2023-06-26T11:42:19;5.50;;;2.40;;
11539;SDS011;5826;54.756;9.192;2023-06-26T11:44:45;4.60;;;2.35;;
11539;SDS011;5826;54.756;9.192;2023-06-26T11:47:14;5.60;;;2.38;;
11539;SDS011;5826;54.756;9.192;2023-06-26T11:49:42;3.38;;;2.10;;
11539;SDS011;5826;54.756;9.192;2023-06-26T11:52:08;5.85;;;2.03;;
11539;SDS011;5826;54.756;9.192;2023-06-26T11:54:34;4.15;;;2.20;;
11539;SDS011;5826;54.756;9.192;2023-06-26T11:56:59;8.95;;;2.65;;
11539;SDS011;5826;54.756;9.192;2023-06-26T11:59:38;6.00;;;2.40;;
11539;SDS011;5826;54.756;9.192;2023-06-26T12:02:06;5.72;;;2.38;;
11539;SDS011;5826;54.756;9.192;2023-06-26T12:04:32;6.45;;;2.25;;
11539;SDS011;5826;54.756;9.192;2023-06-26T12:07:00;4.40;;;2.13;;
11539;SDS011;5826;54.756;9.192;2023-06-26T12:09:29;3.92;;;1.90;;
11539;SDS011;5826;54.756;9.192;2023-06-26T12:11:55;3.50;;;1.70;;
11539;SDS011;5826;54.756;9.192;2023-06-26T12:14:22;5.13;;;2.10;;
11539;SDS011;5826;54.756;9.192;2023-06-26T12:16:50;6.65;;;2.03;;
11539;SDS011;5826;54.756;9.192;2023-06-26T12:19:17;3.38;;;1.73;;
11539;SDS011;5826;54.756;9.192;2023-06-26T12:21:46;3.78;;;1.85;;
11539;SDS011;5826;54.756;9.192;2023-06-26T12:24:17;2.85;;;1.60;;
11539;SDS011;5826;54.756;9.192;2023-06-26T12:26:44;3.85;;;1.80;;
11539;SDS011;5826;54.756;9.192;2023-06-26T12:29:13;3.75;;;1.50;;
11539;SDS011;5826;54.756;9.192;2023-06-26T12:31:42;3.42;;;1.50;;
11539;SDS011;5826;54.756;9.192;2023-06-26T12:34:10;3.10;;;1.48;;
11539;SDS011;5826;54.756;9.192;2023-06-26T12:36:41;3.60;;;1.60;;
11539;SDS011;5826;54.756;9.192;2023-06-26T12:39:09;3.08;;;1.60;;
11539;SDS011;5826;54.756;9.192;2023-06-26T12:41:43;4.07;;;1.80;;
11539;SDS011;5826;54.756;9.192;2023-06-26T12:44:20;2.97;;;1.50;;
11539;SDS011;5826;54.756;9.192;2023-06-26T12:46:47;3.70;;;1.65;;
11539;SDS011;5826;54.756;9.192;2023-06-26T12:49:14;4.25;;;1.45;;
11539;SDS011;5826;54.756;9.192;2023-06-26T12:51:40;2.08;;;1.20;;
11539;SDS011;5826;54.756;9.192;2023-06-26T12:54:07;3.83;;;1.48;;
11539;SDS011;5826;54.756;9.192;2023-06-26T12:56:33;3.72;;;1.50;;
11539;SDS011;5826;54.756;9.192;2023-06-26T12:58:58;3.60;;;1.38;;
11539;SDS011;5826;54.756;9.192;2023-06-26T13:01:26;2.10;;;1.20;;
11539;SDS011;5826;54.756;9.192;2023-06-26T13:03:53;3.15;;;1.40;;
11539;SDS011;5826;54.756;9.192;2023-06-26T13:06:18;4.28;;;1.63;;
11539;SDS011;5826;54.756;9.192;2023-06-26T13:08:44;4.60;;;1.50;;
11539;SDS011;5826;54.756;9.192;2023-06-26T13:11:09;2.67;;;1.23;;
11539;SDS011;5826;54.756;9.192;2023-06-26T13:13:35;2.67;;;1.40;;
11539;SDS011;5826;54.756;9.192;2023-06-26T13:16:00;2.42;;;1.30;;
11539;SDS011;5826;54.756;9.192;2023-06-26T13:18:27;3.13;;;1.33;;
11539;SDS011;5826;54.756;9.192;2023-06-26T13:20:52;4.45;;;1.55;;
11539;SDS011;5826;54.756;9.192;2023-06-26T13:23:18;2.35;;;1.38;;
11539;SDS011;5826;54.756;9.192;2023-06-26T13:25:44;3.45;;;1.45;;
11539;SDS011;5826;54.756;9.192;2023-06-26T13:28:10;2.97;;;1.40;;
11539;SDS011;5826;54.756;9.192;2023-06-26T13:30:35;2.22;;;1.35;;
11539;SDS011;5826;54.756;9.192;2023-06-26T13:33:01;4.50;;;1.60;;
11539;SDS011;5826;54.756;9.192;2023-06-26T13:35:26;3.17;;;1.40;;
11539;SDS011;5826;54.756;9.192;2023-06-26T13:37:52;2.55;;;1.45;;
11539;SDS011;5826;54.756;9.192;2023-06-26T13:40:17;4.78;;;1.55;;
11539;SDS011;5826;54.756;9.192;2023-06-26T13:42:43;2.60;;;1.40;;
11539;SDS011;5826;54.756;9.192;2023-06-26T13:45:09;3.15;;;1.50;;
11539;SDS011;5826;54.756;9.192;2023-06-26T13:47:35;4.30;;;1.77;;
11539;SDS011;5826;54.756;9.192;2023-06-26T13:50:02;3.67;;;1.50;;
11539;SDS011;5826;54.756;9.192;2023-06-26T13:52:29;4.78;;;1.70;;
11539;SDS011;5826;54.756;9.192;2023-06-26T13:54:54;4.72;;;1.70;;
11539;SDS011;5826;54.756;9.192;2023-06-26T13:57:20;3.47;;;1.50;;
11539;SDS011;5826;54.756;9.192;2023-06-26T13:59:47;4.18;;;1.60;;
11539;SDS011;5826;54.756;9.192;2023-06-26T14:02:12;1.60;;;1.33;;
11539;SDS011;5826;54.756;9.192;2023-06-26T14:04:38;3.60;;;1.58;;
11539;SDS011;5826;54.756;9.192;2023-06-26T14:07:04;2.47;;;1.45;;
11539;SDS011;5826;54.756;9.192;2023-06-26T14:09:30;3.05;;;1.73;;
11539;SDS011;5826;54.756;9.192;2023-06-26T14:11:55;3.63;;;1.63;;
11539;SDS011;5826;54.756;9.192;2023-06-26T14:14:21;4.05;;;1.60;;
11539;SDS011;5826;54.756;9.192;2023-06-26T14:16:46;4.15;;;1.65;;
11539;SDS011;5826;54.756;9.192;2023-06-26T14:19:13;3.97;;;1.73;;
11539;SDS011;5826;54.756;9.192;2023-06-26T14:21:40;3.40;;;1.58;;
11539;SDS011;5826;54.756;9.192;2023-06-26T14:24:06;4.57;;;1.75;;
11539;SDS011;5826;54.756;9.192;2023-06-26T14:26:32;5.03;;;1.98;;
11539;SDS011;5826;54.756;9.192;2023-06-26T14:28:58;2.42;;;1.50;;
11539;SDS011;5826;54.756;9.192;2023-06-26T14:31:24;2.67;;;1.60;;
11539;SDS011;5826;54.756;9.192;2023-06-26T14:33:50;4.10;;;1.73;;
11539;SDS011;5826;54.756;9.192;2023-06-26T14:36:15;5.28;;;2.05;;
11539;SDS011;5826;54.756;9.192;2023-06-26T14:38:41;3.03;;;1.52;;
11539;SDS011;5826;54.756;9.192;2023-06-26T14:41:06;3.85;;;1.58;;
11539;SDS011;5826;54.756;9.192;2023-06-26T14:43:32;2.47;;;1.42;;
11539;SDS011;5826;54.756;9.192;2023-06-26T14:45:57;3.20;;;1.60;;
11539;SDS011;5826;54.756;9.192;2023-06-26T14:48:23;4.00;;;1.42;;
11539;SDS011;5826;54.756;9.192;2023-06-26T14:50:48;3.08;;;1.20;;
11539;SDS011;5826;54.756;9.192;2023-06-26T14:53:14;3.22;;;1.58;;
11539;SDS011;5826;54.756;9.192;2023-06-26T14:55:39;2.13;;;1.50;;
11539;SDS011;5826;54.756;9.192;2023-06-26T14:58:05;2.97;;;1.33;;
11539;SDS011;5826;54.756;9.192;2023-06-26T15:00:30;3.25;;;1.30;;
11539;SDS011;5826;54.756;9.192;2023-06-26T15:02:56;4.63;;;1.60;;
11539;SDS011;5826;54.756;9.192;2023-06-26T15:05:23;5.00;;;1.70;;
11539;SDS011;5826;54.756;9.192;2023-06-26T15:07:49;5.13;;;1.85;;
11539;SDS011;5826;54.756;9.192;2023-06-26T15:10:14;5.00;;;1.80;;